Time;durP1;ratioP1;P1;durP2;ratioP2;P2;SDS_P1;SDS_P2;PMS_P1;PMS_P2;Temp;Humidity;BMP_temperature;BMP_pressure;BME280_temperature;BME280_humidity;BME280_pressure;Samples;Min_cycle;Max_cycle;Signal;HPM_P1;HPM_P2
2021/12/31 00:00:40;;;;;;;17.65;10.55;;;22.70;46.10;;;;;;6161305;28;83747;-75
2021/12/31 00:03:40;;;;;;;14.73;10.10;;;22.70;46.30;;;;;;6158026;28;83819;-75
2021/12/31 00:06:44;;;;;;;16.05;10.15;;;22.70;46.30;;;;;;6156454;28;83189;-72
2021/12/31 00:09:45;;;;;;;16.38;10.63;;;22.70;46.40;;;;;;6160636;28;84498;-72
2021/12/31 00:12:46;;;;;;;17.42;10.90;;;22.70;46.10;;;;;;6157363;28;83462;-73
2021/12/31 00:15:46;;;;;;;16.00;9.80;;;22.70;46.20;;;;;;6154590;28;84385;-73
2021/12/31 00:18:47;;;;;;;15.60;10.05;;;22.60;46.20;;;;;;6158739;28;82942;-72
2021/12/31 00:21:49;;;;;;;16.50;10.25;;;22.60;46.40;;;;;;6154618;28;83281;-72
2021/12/31 00:24:50;;;;;;;16.00;9.45;;;22.60;46.20;;;;;;6162149;28;83013;-71
2021/12/31 00:27:51;;;;;;;15.50;9.93;;;22.60;46.40;;;;;;6167824;28;83088;-71
2021/12/31 00:30:53;;;;;;;16.13;9.65;;;22.60;46.30;;;;;;6179165;27;80344;-71
2021/12/31 00:33:54;;;;;;;15.15;9.85;;;22.60;46.50;;;;;;6159342;28;82711;-71
2021/12/31 00:36:54;;;;;;;15.45;9.85;;;22.60;46.40;;;;;;6162907;28;80707;-71
2021/12/31 00:39:55;;;;;;;13.90;8.85;;;22.60;46.40;;;;;;6169318;28;80502;-71
2021/12/31 00:42:55;;;;;;;15.18;9.32;;;22.60;46.70;;;;;;6169526;28;80308;-71
2021/12/31 00:45:56;;;;;;;13.95;9.35;;;22.60;46.40;;;;;;6162019;28;80497;-72
2021/12/31 00:48:57;;;;;;;12.57;8.48;;;22.60;46.60;;;;;;6161017;28;80437;-72
2021/12/31 00:51:58;;;;;;;12.50;8.55;;;22.60;46.90;;;;;;6169522;28;81217;-72
2021/12/31 00:54:58;;;;;;;14.35;9.20;;;22.60;46.40;;;;;;6156022;28;81622;-73
2021/12/31 00:57:59;;;;;;;14.52;8.77;;;22.60;46.30;;;;;;6166999;28;80994;-72
2021/12/31 01:00:59;;;;;;;15.13;9.48;;;22.60;46.20;;;;;;6171486;28;81027;-73
2021/12/31 01:04:00;;;;;;;15.68;8.73;;;22.60;46.20;;;;;;6169675;28;81104;-72
2021/12/31 01:07:03;;;;;;;12.75;8.55;;;22.60;46.20;;;;;;6171842;28;80440;-73
2021/12/31 01:10:04;;;;;;;12.65;8.25;;;22.60;46.20;;;;;;6164100;28;80652;-72
2021/12/31 01:13:09;;;;;;;11.63;7.90;;;22.60;46.20;;;;;;6161039;28;80545;-73
2021/12/31 01:16:10;;;;;;;12.68;7.63;;;22.60;46.20;;;;;;6159947;28;80006;-72
2021/12/31 01:22:11;;;;;;;11.50;7.22;;;22.60;46.40;;;;;;6166884;28;80449;-73
2021/12/31 01:25:11;;;;;;;12.07;7.03;;;22.60;46.30;;;;;;6161154;28;81476;-73
2021/12/31 01:28:12;;;;;;;12.63;7.05;;;22.60;46.30;;;;;;6174692;28;80433;-73
2021/12/31 01:31:12;;;;;;;10.73;7.13;;;22.60;46.50;;;;;;6169374;28;80991;-73
2021/12/31 01:34:13;;;;;;;10.32;6.70;;;22.60;46.40;;;;;;6176650;27;80664;-73
2021/12/31 01:37:13;;;;;;;9.73;6.28;;;22.60;46.50;;;;;;6192525;28;86337;-74
2021/12/31 01:40:14;;;;;;;9.13;5.57;;;22.60;46.50;;;;;;6176196;27;82540;-74
2021/12/31 01:43:14;;;;;;;10.13;5.93;;;22.60;46.50;;;;;;6159244;28;80552;-72
2021/12/31 01:46:15;;;;;;;8.27;5.60;;;22.60;46.60;;;;;;6158420;28;82816;-72
2021/12/31 01:49:21;;;;;;;10.10;6.10;;;22.60;46.60;;;;;;6159032;28;80381;-72
2021/12/31 01:52:21;;;;;;;8.57;5.72;;;22.60;46.60;;;;;;6168328;27;80592;-73
2021/12/31 01:55:22;;;;;;;8.07;5.18;;;22.60;46.90;;;;;;6174402;27;81564;-73
2021/12/31 01:58:22;;;;;;;8.27;4.93;;;22.60;47.10;;;;;;6161893;28;80786;-72
2021/12/31 02:01:23;;;;;;;8.68;6.07;;;22.60;47.30;;;;;;6160239;28;80383;-73
2021/12/31 02:04:23;;;;;;;7.38;5.03;;;22.60;47.30;;;;;;6158251;28;83279;-71
2021/12/31 02:07:24;;;;;;;6.30;4.40;;;22.60;47.50;;;;;;6167843;27;80612;-73
2021/12/31 02:10:24;;;;;;;7.65;4.78;;;22.60;47.90;;;;;;6176978;28;80501;-73
2021/12/31 02:13:25;;;;;;;7.55;4.88;;;22.60;47.50;;;;;;6176100;27;80350;-73
2021/12/31 02:16:25;;;;;;;6.57;4.50;;;22.60;47.50;;;;;;6159837;28;80390;-73
2021/12/31 02:19:27;;;;;;;6.95;4.55;;;22.60;47.90;;;;;;6169406;27;80306;-72
2021/12/31 02:22:28;;;;;;;7.18;4.53;;;22.60;47.50;;;;;;6156845;28;80958;-72
2021/12/31 02:25:31;;;;;;;6.85;4.88;;;22.60;47.60;;;;;;6164257;27;80957;-72
2021/12/31 02:28:31;;;;;;;6.70;4.57;;;22.60;47.50;;;;;;6153180;28;81601;-73
2021/12/31 02:31:32;;;;;;;6.35;4.82;;;22.60;47.60;;;;;;6165048;27;80174;-72
2021/12/31 02:34:32;;;;;;;6.45;4.15;;;22.50;47.80;;;;;;6158673;28;80785;-73
2021/12/31 02:37:33;;;;;;;6.85;4.30;;;22.60;47.70;;;;;;6160367;28;80896;-73
2021/12/31 02:40:33;;;;;;;6.40;3.80;;;22.60;47.80;;;;;;6160232;28;81104;-73
2021/12/31 02:43:34;;;;;;;7.20;4.45;;;22.60;47.70;;;;;;6165559;28;80656;-71
2021/12/31 02:46:35;;;;;;;6.18;4.05;;;22.50;47.70;;;;;;6167286;28;80106;-72
2021/12/31 02:49:38;;;;;;;4.78;3.60;;;22.50;47.80;;;;;;6166324;28;80663;-72
2021/12/31 02:52:39;;;;;;;5.35;3.60;;;22.50;47.70;;;;;;6169178;28;80203;-72
2021/12/31 02:55:39;;;;;;;5.45;3.65;;;22.60;47.70;;;;;;6161895;28;81755;-72
2021/12/31 02:58:40;;;;;;;5.05;3.40;;;22.60;47.50;;;;;;6162505;28;80505;-72
2021/12/31 03:01:40;;;;;;;7.78;4.57;;;22.50;47.30;;;;;;6167008;28;80379;-72
2021/12/31 03:04:41;;;;;;;5.15;3.67;;;22.60;47.30;;;;;;6180875;27;80383;-72
2021/12/31 03:07:41;;;;;;;5.43;3.67;;;22.50;47.20;;;;;;6168441;27;84478;-72
2021/12/31 03:10:42;;;;;;;5.38;3.70;;;22.50;47.30;;;;;;6161199;28;80344;-72
2021/12/31 03:13:42;;;;;;;6.88;4.10;;;22.50;47.30;;;;;;6161288;28;81995;-72
2021/12/31 03:16:43;;;;;;;4.68;3.03;;;22.50;47.40;;;;;;6168975;28;80630;-72
2021/12/31 03:19:44;;;;;;;3.80;2.97;;;22.60;47.70;;;;;;6169114;28;87651;-72
2021/12/31 03:22:44;;;;;;;4.95;2.90;;;22.60;47.40;;;;;;6160573;28;80385;-72
2021/12/31 03:25:45;;;;;;;4.53;2.85;;;22.60;47.10;;;;;;6159289;28;82375;-72
2021/12/31 03:28:45;;;;;;;5.28;3.25;;;22.60;47.10;;;;;;6168422;28;80628;-72
2021/12/31 03:31:46;;;;;;;3.75;3.05;;;22.60;47.10;;;;;;6179013;27;80401;-72
2021/12/31 03:34:46;;;;;;;4.80;2.67;;;22.70;47.10;;;;;;6180742;27;81160;-72
2021/12/31 03:37:48;;;;;;;4.25;2.70;;;22.70;47.00;;;;;;6166966;27;80811;-72
2021/12/31 03:40:50;;;;;;;4.10;2.75;;;22.70;46.90;;;;;;6166007;28;80885;-72
2021/12/31 03:43:50;;;;;;;4.38;2.95;;;22.70;46.90;;;;;;6171023;28;81067;-72
2021/12/31 03:46:51;;;;;;;5.35;2.78;;;22.70;47.50;;;;;;6171900;27;82921;-73
2021/12/31 03:49:51;;;;;;;3.28;2.30;;;22.80;46.90;;;;;;6160398;28;80313;-72
2021/12/31 03:52:52;;;;;;;3.28;2.80;;;22.80;46.90;;;;;;6158495;28;80894;-72
2021/12/31 03:55:52;;;;;;;4.22;2.78;;;22.80;47.00;;;;;;6165782;28;81550;-73
2021/12/31 03:58:55;;;;;;;3.05;2.13;;;22.80;47.10;;;;;;6161697;28;81068;-73
2021/12/31 04:01:55;;;;;;;3.72;2.70;;;22.80;47.20;;;;;;6168081;28;80409;-76
2021/12/31 04:04:56;;;;;;;4.25;2.83;;;22.80;47.30;;;;;;6163199;28;80509;-73
2021/12/31 04:07:56;;;;;;;3.47;2.38;;;22.80;47.30;;;;;;6159836;28;80640;-73
2021/12/31 04:10:57;;;;;;;3.40;2.90;;;22.80;47.30;;;;;;6173222;28;81982;-73
2021/12/31 04:13:57;;;;;;;3.92;2.72;;;22.80;47.40;;;;;;6161436;28;80929;-73
2021/12/31 04:16:58;;;;;;;3.63;2.58;;;22.80;47.50;;;;;;6168227;28;80572;-73
2021/12/31 04:19:58;;;;;;;4.18;2.70;;;22.90;47.50;;;;;;6159752;28;81748;-72
2021/12/31 04:23:01;;;;;;;2.55;2.30;;;22.90;47.60;;;;;;6168025;28;80481;-74
2021/12/31 04:26:01;;;;;;;3.08;2.33;;;22.90;47.70;;;;;;6160556;28;81483;-76
2021/12/31 04:29:02;;;;;;;2.58;1.92;;;22.90;47.70;;;;;;6177377;28;80504;-72
2021/12/31 04:32:02;;;;;;;2.65;1.98;;;22.90;47.70;;;;;;6175671;28;81039;-73
2021/12/31 04:35:03;;;;;;;3.97;2.08;;;22.90;47.80;;;;;;6160500;28;80892;-74
2021/12/31 04:38:03;;;;;;;2.60;2.40;;;22.90;47.90;;;;;;6177228;28;81035;-72
2021/12/31 04:41:04;;;;;;;2.33;2.05;;;22.90;48.00;;;;;;6167912;28;81060;-73
2021/12/31 04:44:05;;;;;;;2.42;1.98;;;22.90;48.10;;;;;;6179684;28;80243;-73
2021/12/31 04:47:05;;;;;;;2.45;2.00;;;22.90;48.40;;;;;;6160321;28;80566;-72
2021/12/31 04:50:06;;;;;;;3.15;2.22;;;22.90;48.30;;;;;;6177102;28;83575;-74
2021/12/31 04:53:07;;;;;;;3.03;2.17;;;22.90;48.30;;;;;;6160394;28;80531;-72
2021/12/31 04:56:07;;;;;;;3.50;2.10;;;22.90;48.20;;;;;;6151784;28;80697;-72
2021/12/31 04:59:09;;;;;;;3.92;2.22;;;22.90;48.30;;;;;;6159319;28;80614;-73
2021/12/31 05:02:09;;;;;;;3.13;2.33;;;22.90;48.10;;;;;;6158930;28;83795;-75
2021/12/31 05:05:11;;;;;;;1.95;1.67;;;23.00;48.20;;;;;;6166898;28;80942;-72
2021/12/31 05:08:11;;;;;;;3.42;2.20;;;23.00;48.20;;;;;;6159930;28;80869;-73
2021/12/31 05:11:12;;;;;;;4.40;2.00;;;23.00;48.20;;;;;;6159630;28;82215;-69
2021/12/31 05:14:12;;;;;;;2.58;1.90;;;23.00;48.70;;;;;;6160599;27;80924;-70
2021/12/31 05:17:13;;;;;;;6.88;1.83;;;23.00;48.80;;;;;;6165674;28;80930;-69
2021/12/31 05:20:13;;;;;;;2.17;1.50;;;23.00;48.80;;;;;;6158438;28;81525;-69
2021/12/31 05:23:14;;;;;;;2.70;2.03;;;23.00;48.70;;;;;;6158808;28;80774;-69
2021/12/31 05:26:14;;;;;;;1.92;1.65;;;23.00;49.00;;;;;;6158686;28;80487;-69
2021/12/31 05:29:15;;;;;;;1.73;1.52;;;23.00;49.20;;;;;;6158564;28;81629;-69
2021/12/31 05:32:15;;;;;;;3.50;2.10;;;23.00;49.00;;;;;;6158730;28;81632;-68
2021/12/31 05:35:16;;;;;;;2.10;1.40;;;23.10;49.00;;;;;;6151390;28;80405;-69
2021/12/31 05:38:16;;;;;;;3.15;2.15;;;23.10;49.00;;;;;;6153541;28;80455;-68
2021/12/31 05:41:17;;;;;;;2.60;1.80;;;23.10;49.00;;;;;;6152286;28;80644;-69
2021/12/31 05:44:17;;;;;;;1.65;1.55;;;23.10;49.20;;;;;;6152809;28;80614;-69
2021/12/31 05:47:18;;;;;;;2.20;1.75;;;23.10;49.10;;;;;;6151158;28;80613;-70
2021/12/31 05:50:27;;;;;;;1.40;1.30;;;23.10;49.30;;;;;;6181488;28;81741;-69
2021/12/31 05:53:28;;;;;;;1.90;1.40;;;23.20;49.40;;;;;;6149346;28;80626;-71
2021/12/31 05:56:28;;;;;;;4.00;1.58;;;23.10;49.60;;;;;;6168694;28;81910;-69
2021/12/31 05:59:29;;;;;;;3.20;1.98;;;23.10;49.80;;;;;;6158593;28;80965;-67
2021/12/31 06:02:36;;;;;;;6.90;1.58;;;23.10;49.60;;;;;;6156289;28;81940;-72
2021/12/31 06:05:37;;;;;;;1.90;1.63;;;23.20;49.70;;;;;;6158691;28;80602;-70
2021/12/31 06:08:37;;;;;;;4.43;2.05;;;23.10;49.70;;;;;;6156137;28;80422;-72
2021/12/31 06:11:38;;;;;;;2.47;1.73;;;23.20;49.70;;;;;;6165924;28;80413;-70
2021/12/31 06:14:41;;;;;;;2.33;1.58;;;23.20;50.00;;;;;;6151951;28;81540;-69
2021/12/31 06:17:42;;;;;;;1.52;1.30;;;23.00;50.10;;;;;;6161872;28;80750;-69
2021/12/31 06:20:42;;;;;;;2.35;1.42;;;22.90;50.30;;;;;;6161196;28;81515;-68
2021/12/31 06:23:43;;;;;;;1.20;1.08;;;22.90;50.50;;;;;;6161951;28;80254;-69
2021/12/31 06:26:43;;;;;;;1.65;1.20;;;22.90;51.10;;;;;;6161385;28;82060;-69
2021/12/31 06:29:44;;;;;;;1.42;1.25;;;23.00;51.50;;;;;;6162260;28;80447;-68
2021/12/31 06:32:44;;;;;;;0.90;0.90;;;23.00;52.40;;;;;;6194186;28;83310;-69
2021/12/31 06:35:45;;;;;;;2.25;0.82;;;23.00;53.10;;;;;;6162098;28;80845;-67
2021/12/31 06:38:45;;;;;;;1.40;1.27;;;22.90;53.80;;;;;;6160719;28;81646;-69
2021/12/31 06:41:46;;;;;;;1.00;1.00;;;22.90;54.60;;;;;;6161840;28;81908;-74
2021/12/31 06:44:58;;;;;;;1.00;1.00;;;22.90;55.00;;;;;;6162386;28;80834;-70
2021/12/31 06:48:01;;;;;;;3.17;0.80;;;22.80;56.00;;;;;;6162348;28;81718;-71
2021/12/31 06:51:01;;;;;;;1.25;1.13;;;22.80;56.80;;;;;;6162361;28;80482;-74
2021/12/31 06:54:02;;;;;;;2.22;1.23;;;22.80;57.30;;;;;;6159953;28;80515;-73
2021/12/31 06:57:03;;;;;;;2.38;1.00;;;22.80;57.70;;;;;;6161775;28;82105;-70
2021/12/31 07:00:04;;;;;;;0.80;0.80;;;22.80;57.70;;;;;;6160974;28;80747;-69
2021/12/31 07:03:05;;;;;;;2.08;1.42;;;22.80;58.30;;;;;;6157778;28;81653;-69
2021/12/31 07:06:05;;;;;;;1.80;0.95;;;22.80;58.60;;;;;;6158687;28;80470;-70
2021/12/31 07:09:06;;;;;;;0.95;0.95;;;22.80;59.00;;;;;;6158788;28;83763;-69
2021/12/31 07:12:06;;;;;;;3.85;0.93;;;22.80;59.30;;;;;;6157721;28;80405;-71
2021/12/31 07:15:07;;;;;;;1.23;0.90;;;22.80;59.60;;;;;;6157101;28;81021;-72
2021/12/31 07:18:07;;;;;;;1.70;1.30;;;22.80;59.30;;;;;;6162762;28;81148;-71
2021/12/31 07:21:08;;;;;;;2.67;1.70;;;22.90;59.10;;;;;;6160244;28;81562;-70
2021/12/31 07:24:08;;;;;;;4.47;1.48;;;22.90;58.50;;;;;;6161857;28;81573;-70
2021/12/31 07:27:09;;;;;;;1.98;1.35;;;23.00;58.10;;;;;;6163236;28;80542;-69
2021/12/31 07:30:16;;;;;;;2.35;1.67;;;23.00;57.60;;;;;;6161589;28;81637;-68
2021/12/31 07:33:16;;;;;;;1.60;1.40;;;23.00;58.30;;;;;;6159364;28;82885;-68
2021/12/31 07:36:17;;;;;;;7.75;1.52;;;23.00;57.60;;;;;;6159095;28;80474;-70
2021/12/31 07:39:20;;;;;;;2.13;1.33;;;23.00;57.30;;;;;;6159510;28;80890;-70
2021/12/31 07:42:21;;;;;;;1.92;1.50;;;23.00;56.70;;;;;;6158864;28;81804;-70
2021/12/31 07:45:21;;;;;;;2.50;1.48;;;23.00;56.90;;;;;;6152318;28;80422;-70
2021/12/31 07:48:22;;;;;;;2.88;1.63;;;23.00;56.50;;;;;;6160357;28;80373;-69
2021/12/31 07:51:22;;;;;;;2.13;1.67;;;23.00;56.60;;;;;;6151639;28;82547;-69
2021/12/31 07:54:23;;;;;;;16.45;2.00;;;23.00;56.60;;;;;;6153655;28;82017;-70
2021/12/31 07:57:23;;;;;;;2.13;1.60;;;23.00;56.20;;;;;;6161875;28;80646;-70
2021/12/31 08:00:24;;;;;;;2.03;1.40;;;23.00;56.00;;;;;;6159670;28;80923;-69
2021/12/31 08:03:24;;;;;;;1.40;1.27;;;23.00;56.10;;;;;;6156536;28;80691;-75
2021/12/31 08:06:25;;;;;;;1.92;1.52;;;23.00;56.00;;;;;;6158692;28;80280;-74
2021/12/31 08:09:25;;;;;;;3.45;1.58;;;23.00;55.90;;;;;;6159341;28;81601;-71
2021/12/31 08:12:27;;;;;;;2.45;1.60;;;23.00;56.40;;;;;;6159054;28;80535;-70
2021/12/31 08:15:28;;;;;;;4.45;1.80;;;23.00;55.80;;;;;;6157977;28;81098;-70
2021/12/31 08:18:28;;;;;;;6.30;1.58;;;23.00;56.10;;;;;;6160785;28;81153;-73
2021/12/31 08:21:29;;;;;;;3.60;1.58;;;22.90;55.90;;;;;;6160592;28;80957;-71
2021/12/31 08:24:29;;;;;;;3.72;1.30;;;23.00;56.30;;;;;;6161026;28;80563;-71
2021/12/31 08:27:29;;;;;;;3.25;1.70;;;23.00;56.30;;;;;;6161233;28;80682;-75
2021/12/31 08:30:30;;;;;;;2.45;1.50;;;22.90;56.50;;;;;;6161294;28;80263;-73
2021/12/31 08:33:31;;;;;;;3.63;1.58;;;22.90;57.60;;;;;;6161103;28;80597;-72
2021/12/31 08:36:31;;;;;;;5.85;1.35;;;23.00;58.20;;;;;;6160271;28;81613;-73
2021/12/31 08:39:32;;;;;;;7.65;1.40;;;23.00;57.80;;;;;;6160001;28;80458;-71
2021/12/31 08:42:35;;;;;;;3.38;1.45;;;23.00;58.30;;;;;;6161567;28;80628;-73
2021/12/31 08:45:35;;;;;;;141.38;63.00;;;23.00;57.80;;;;;;6160209;28;80341;-72
2021/12/31 08:48:36;;;;;;;246.90;115.85;;;22.90;57.70;;;;;;6155594;28;83132;-72
2021/12/31 08:51:37;;;;;;;332.88;162.15;;;22.90;57.60;;;;;;6182262;28;85668;-74
2021/12/31 08:54:37;;;;;;;524.28;286.30;;;22.90;57.50;;;;;;6153201;28;85483;-69
2021/12/31 08:57:38;;;;;;;377.65;189.70;;;23.00;57.40;;;;;;6152043;28;86089;-73
2021/12/31 09:00:38;;;;;;;340.08;168.57;;;23.00;56.40;;;;;;6154311;28;86914;-73
2021/12/31 09:03:39;;;;;;;446.50;231.75;;;23.00;56.40;;;;;;6153034;28;85223;-72
2021/12/31 09:06:39;;;;;;;509.42;281.77;;;23.00;56.60;;;;;;6150401;28;85545;-73
2021/12/31 09:09:40;;;;;;;527.92;299.98;;;23.00;56.80;;;;;;6156319;28;85538;-71
2021/12/31 09:12:40;;;;;;;480.83;251.75;;;23.00;56.70;;;;;;6156845;28;85550;-71
2021/12/31 09:15:41;;;;;;;360.73;185.63;;;23.00;56.60;;;;;;6152553;28;86414;-67
2021/12/31 09:18:42;;;;;;;333.83;177.68;;;23.10;56.50;;;;;;6148078;28;86322;-71
2021/12/31 09:21:42;;;;;;;358.65;176.02;;;23.00;56.30;;;;;;6146275;28;85287;-69
2021/12/31 09:24:43;;;;;;;301.05;154.23;;;23.10;56.10;;;;;;6144566;28;85967;-72
2021/12/31 09:27:43;;;;;;;294.25;140.90;;;23.10;55.60;;;;;;6145411;28;85675;-70
2021/12/31 09:30:44;;;;;;;247.23;120.28;;;23.10;55.70;;;;;;6144324;28;92972;-72
2021/12/31 09:33:44;;;;;;;251.18;122.55;;;23.10;55.60;;;;;;6148363;28;85770;-73
2021/12/31 09:36:45;;;;;;;224.32;110.68;;;23.10;55.50;;;;;;6150327;28;85909;-72
2021/12/31 09:39:45;;;;;;;196.88;101.72;;;23.10;55.40;;;;;;6152942;28;86038;-65
2021/12/31 09:42:46;;;;;;;192.52;97.00;;;23.10;55.40;;;;;;6152333;28;85432;-67
2021/12/31 09:45:47;;;;;;;174.15;84.53;;;23.10;55.20;;;;;;6154966;28;85564;-67
2021/12/31 09:48:48;;;;;;;182.23;89.35;;;23.10;55.20;;;;;;6151466;28;84170;-67
2021/12/31 09:51:48;;;;;;;152.32;78.80;;;23.10;55.20;;;;;;6154161;28;83550;-72
2021/12/31 09:54:49;;;;;;;151.60;77.38;;;23.10;54.90;;;;;;6148518;28;83587;-73
2021/12/31 09:57:49;;;;;;;132.43;63.88;;;23.10;55.00;;;;;;6164462;28;84281;-68
2021/12/31 10:00:50;;;;;;;117.53;58.42;;;23.10;54.70;;;;;;6153692;28;83944;-73
2021/12/31 10:03:51;;;;;;;98.75;47.65;;;23.10;54.70;;;;;;6152749;28;84517;-73
2021/12/31 10:06:51;;;;;;;86.97;41.22;;;23.00;54.50;;;;;;6145123;28;83185;-73
2021/12/31 10:09:52;;;;;;;75.50;35.40;;;23.00;54.30;;;;;;6152872;28;83928;-71
2021/12/31 10:12:52;;;;;;;61.47;28.35;;;23.00;54.10;;;;;;6153374;28;83297;-72
2021/12/31 10:15:53;;;;;;;49.60;24.30;;;23.00;54.10;;;;;;6150466;28;83477;-72
2021/12/31 10:18:53;;;;;;;41.15;20.88;;;23.00;54.00;;;;;;6153941;28;83279;-72
2021/12/31 10:21:56;;;;;;;36.88;19.20;;;23.00;54.00;;;;;;6154394;28;84111;-73
2021/12/31 10:24:57;;;;;;;30.92;16.73;;;23.10;54.20;;;;;;6149124;28;83427;-73
2021/12/31 10:27:58;;;;;;;31.00;15.38;;;23.10;54.20;;;;;;6156577;28;83967;-73
2021/12/31 10:30:58;;;;;;;24.40;12.68;;;23.10;54.30;;;;;;6154068;28;83939;-71
2021/12/31 10:33:59;;;;;;;20.63;11.80;;;23.10;54.80;;;;;;6152687;28;88977;-72
2021/12/31 10:37:30;;;;;;;;;;;;;;;;;;;;;
2021/12/31 10:44:35;;;;;;;17.75;9.55;;;23.20;56.00;;;;;;6097942;28;87815;-74
2021/12/31 10:47:38;;;;;;;18.13;9.98;;;23.20;56.50;;;;;;6099043;28;82842;-73
2021/12/31 10:57:42;;;;;;;14.77;8.38;;;23.30;56.20;;;;;;6100964;28;80432;-76
2021/12/31 11:00:43;;;;;;;13.32;7.50;;;23.30;55.60;;;;;;6108112;28;80764;-75
2021/12/31 11:03:43;;;;;;;15.07;7.72;;;23.30;55.30;;;;;;6147597;28;82271;-76
2021/12/31 11:06:44;;;;;;;16.52;6.85;;;23.30;55.10;;;;;;6160379;28;81030;-75
2021/12/31 11:09:44;;;;;;;12.45;6.72;;;23.30;54.70;;;;;;6165197;28;80227;-75
2021/12/31 11:12:47;;;;;;;14.65;6.47;;;23.40;54.60;;;;;;6162120;28;80636;-74
2021/12/31 11:15:49;;;;;;;12.48;6.95;;;23.30;54.30;;;;;;6194385;28;83016;-72
2021/12/31 11:18:49;;;;;;;10.70;6.18;;;23.40;54.90;;;;;;6164115;28;81494;-72
2021/12/31 11:21:51;;;;;;;12.05;6.30;;;23.40;54.30;;;;;;6165660;28;80392;-72
2021/12/31 11:24:51;;;;;;;11.35;6.50;;;23.40;54.10;;;;;;6163951;28;80969;-69
2021/12/31 11:27:52;;;;;;;13.13;6.38;;;23.40;53.80;;;;;;6156588;28;80640;-72
2021/12/31 11:30:53;;;;;;;11.85;5.80;;;23.40;54.10;;;;;;6153110;28;80406;-71
2021/12/31 11:33:53;;;;;;;13.38;6.13;;;23.40;53.80;;;;;;6161650;28;81698;-72
2021/12/31 11:36:55;;;;;;;12.48;5.60;;;23.50;54.60;;;;;;6161179;28;82090;-75
2021/12/31 11:39:55;;;;;;;15.88;6.25;;;23.50;55.20;;;;;;6160836;28;81839;-72
2021/12/31 11:42:56;;;;;;;8.27;5.20;;;23.50;55.30;;;;;;6162022;28;80303;-73
2021/12/31 11:45:56;;;;;;;9.80;5.28;;;23.50;54.90;;;;;;6163680;28;80550;-72
2021/12/31 11:48:57;;;;;;;15.55;5.90;;;23.60;55.20;;;;;;6159861;28;81787;-73
2021/12/31 11:51:57;;;;;;;10.63;4.70;;;23.70;55.20;;;;;;6158280;28;80678;-75
2021/12/31 11:54:58;;;;;;;7.65;4.80;;;23.80;54.80;;;;;;6158752;28;80531;-74
2021/12/31 11:57:58;;;;;;;10.65;5.65;;;23.90;54.60;;;;;;6162100;28;80910;-69
2021/12/31 12:00:59;;;;;;;9.48;5.20;;;24.00;54.20;;;;;;6158210;28;82320;-75
2021/12/31 12:03:59;;;;;;;9.70;5.07;;;24.00;53.50;;;;;;6166164;28;80533;-74
2021/12/31 12:07:00;;;;;;;21.65;5.63;;;24.00;53.60;;;;;;6188801;28;81525;-74
2021/12/31 12:10:00;;;;;;;14.60;4.63;;;23.90;53.80;;;;;;6160520;28;82343;-73
2021/12/31 12:13:01;;;;;;;11.45;4.72;;;23.90;53.70;;;;;;6161876;28;80514;-72
2021/12/31 12:16:03;;;;;;;10.70;4.93;;;23.90;53.50;;;;;;6161179;27;81038;-75
2021/12/31 12:19:05;;;;;;;22.65;4.70;;;23.90;53.40;;;;;;6184569;28;81569;-73
2021/12/31 12:22:06;;;;;;;14.45;4.85;;;23.90;53.30;;;;;;6160838;28;80625;-75
2021/12/31 12:25:06;;;;;;;7.05;4.35;;;24.00;52.90;;;;;;6156571;28;81422;-73
2021/12/31 12:28:07;;;;;;;8.38;3.97;;;24.00;52.90;;;;;;6158488;28;80364;-73
2021/12/31 12:31:08;;;;;;;10.65;4.28;;;24.10;52.60;;;;;;6161608;28;80425;-73
2021/12/31 12:34:10;;;;;;;8.30;4.50;;;24.20;52.50;;;;;;6158247;28;87182;-73
2021/12/31 12:37:11;;;;;;;9.77;4.18;;;24.20;51.90;;;;;;6160784;28;80335;-75
2021/12/31 12:40:11;;;;;;;11.23;4.88;;;24.20;52.00;;;;;;6159160;28;81429;-74
2021/12/31 12:43:12;;;;;;;8.18;4.53;;;24.10;51.90;;;;;;6158108;28;80746;-78
2021/12/31 12:46:14;;;;;;;12.02;4.47;;;24.10;51.90;;;;;;6164679;28;82481;-77
2021/12/31 12:49:17;;;;;;;8.13;4.18;;;24.00;52.00;;;;;;6163214;28;80493;-77
2021/12/31 12:52:18;;;;;;;8.40;4.03;;;24.00;52.10;;;;;;6157004;28;80374;-76
2021/12/31 12:55:18;;;;;;;9.45;5.30;;;23.90;51.80;;;;;;6159995;28;80311;-79
2021/12/31 12:58:19;;;;;;;8.95;4.50;;;23.90;51.90;;;;;;6158991;28;81375;-76
2021/12/31 13:01:19;;;;;;;12.18;4.40;;;23.80;52.60;;;;;;6158222;28;81061;-79
2021/12/31 13:04:20;;;;;;;13.80;5.05;;;23.80;53.30;;;;;;6160757;28;80440;-73
2021/12/31 13:07:20;;;;;;;8.18;4.90;;;24.40;85.50;;;;;;6161075;28;80445;-75
2021/12/31 13:10:21;;;;;;;9.23;4.85;;;24.00;67.70;;;;;;6160092;28;80292;-74
2021/12/31 13:13:21;;;;;;;11.55;4.82;;;23.90;65.60;;;;;;6153228;28;81405;-75
2021/12/31 13:16:22;;;;;;;10.52;4.82;;;23.90;64.90;;;;;;6157613;28;81064;-74
2021/12/31 13:19:22;;;;;;;9.57;5.28;;;23.80;64.20;;;;;;6157212;28;80580;-72
2021/12/31 13:22:23;;;;;;;14.20;6.10;;;23.80;64.10;;;;;;6157583;28;81064;-72
2021/12/31 13:25:23;;;;;;;14.55;6.75;;;23.80;63.90;;;;;;6187872;28;83074;-74
2021/12/31 13:28:24;;;;;;;15.55;6.60;;;23.80;64.50;;;;;;6155449;28;83226;-72
2021/12/31 13:31:25;;;;;;;14.57;5.80;;;23.80;64.20;;;;;;6158819;28;80978;-72
2021/12/31 13:34:25;;;;;;;12.60;6.00;;;23.80;64.10;;;;;;6160739;28;80811;-71
2021/12/31 13:37:26;;;;;;;14.35;5.82;;;23.80;63.90;;;;;;6190547;28;82544;-74
2021/12/31 13:40:27;;;;;;;13.15;6.03;;;23.80;63.80;;;;;;6189229;28;83486;-73
2021/12/31 13:43:28;;;;;;;13.98;5.80;;;23.70;64.30;;;;;;6157279;28;80505;-72
2021/12/31 13:46:28;;;;;;;15.05;5.57;;;23.80;64.60;;;;;;6155692;28;81560;-74
2021/12/31 13:49:29;;;;;;;14.57;6.40;;;23.80;64.30;;;;;;6155325;28;87634;-75
2021/12/31 13:52:29;;;;;;;11.15;5.85;;;23.70;64.00;;;;;;6159648;28;81158;-71
2021/12/31 13:55:30;;;;;;;14.63;6.50;;;23.80;63.70;;;;;;6157754;28;80368;-67
2021/12/31 13:58:31;;;;;;;10.40;5.00;;;23.70;63.40;;;;;;6157838;28;82058;-69
2021/12/31 14:01:31;;;;;;;10.63;5.50;;;23.80;62.70;;;;;;6158818;28;80791;-72
2021/12/31 14:04:32;;;;;;;11.02;6.05;;;23.80;62.30;;;;;;6161115;28;80874;-72
2021/12/31 14:07:36;;;;;;;16.38;5.50;;;23.70;62.00;;;;;;6158258;28;80861;-70
2021/12/31 14:10:37;;;;;;;13.60;6.70;;;23.70;61.70;;;;;;6157464;28;80579;-72
2021/12/31 14:13:38;;;;;;;13.32;6.50;;;23.70;61.10;;;;;;6161229;28;81149;-65
2021/12/31 14:16:38;;;;;;;15.27;6.15;;;23.70;61.20;;;;;;6154101;28;80693;-65
2021/12/31 14:19:42;;;;;;;16.80;5.80;;;23.70;60.80;;;;;;6154112;28;82027;-65
2021/12/31 14:22:42;;;;;;;14.32;6.00;;;23.60;60.80;;;;;;6152542;28;80983;-67
2021/12/31 14:25:44;;;;;;;13.23;6.07;;;23.60;60.90;;;;;;6157254;28;81652;-66
2021/12/31 14:28:47;;;;;;;12.32;5.57;;;23.60;60.60;;;;;;6154755;28;80276;-67
2021/12/31 14:31:47;;;;;;;11.68;6.15;;;23.60;60.40;;;;;;6158214;28;80508;-65
2021/12/31 14:34:48;;;;;;;8.88;4.85;;;23.60;60.00;;;;;;6146050;28;80628;-67
2021/12/31 14:37:48;;;;;;;11.73;5.65;;;23.60;59.50;;;;;;6154181;28;80707;-67
2021/12/31 14:40:51;;;;;;;11.70;6.10;;;23.60;59.30;;;;;;6162099;28;82912;-67
2021/12/31 14:43:58;;;;;;;8.75;5.38;;;23.60;59.10;;;;;;6161838;28;80679;-68
2021/12/31 14:47:00;;;;;;;10.55;5.72;;;23.60;59.00;;;;;;6149781;28;80224;-70
2021/12/31 14:50:00;;;;;;;14.02;5.35;;;23.50;58.70;;;;;;6160444;28;80973;-69
2021/12/31 14:53:02;;;;;;;13.25;6.10;;;23.50;58.90;;;;;;6157096;28;80066;-66
2021/12/31 14:56:03;;;;;;;11.60;5.30;;;23.50;58.90;;;;;;6155750;28;80979;-69
2021/12/31 14:59:03;;;;;;;9.13;4.97;;;23.50;58.80;;;;;;6159177;28;80660;-69
2021/12/31 15:02:04;;;;;;;10.90;5.45;;;23.50;58.70;;;;;;6158561;28;80910;-69
2021/12/31 15:05:04;;;;;;;9.80;5.72;;;23.60;58.70;;;;;;6156582;28;80045;-67
2021/12/31 15:08:05;;;;;;;9.68;6.10;;;23.50;58.00;;;;;;6159756;28;80451;-68
2021/12/31 15:11:05;;;;;;;11.48;7.03;;;23.40;56.50;;;;;;6157364;28;80485;-66
2021/12/31 15:14:06;;;;;;;22.10;7.43;;;23.10;55.90;;;;;;6159390;28;80879;-69
2021/12/31 15:17:06;;;;;;;11.35;6.57;;;23.00;56.30;;;;;;6158192;28;80778;-69
2021/12/31 15:20:07;;;;;;;13.63;7.30;;;23.00;56.30;;;;;;6160683;28;80598;-71
2021/12/31 15:23:07;;;;;;;15.27;6.28;;;23.10;56.60;;;;;;6161751;28;80402;-69
2021/12/31 15:26:08;;;;;;;9.90;6.18;;;23.10;56.50;;;;;;6161759;28;80886;-69
2021/12/31 15:29:09;;;;;;;11.10;5.97;;;23.10;56.30;;;;;;6160165;28;81268;-70
2021/12/31 15:32:09;;;;;;;11.43;6.07;;;23.20;56.20;;;;;;6163101;28;84966;-72
2021/12/31 15:35:10;;;;;;;12.50;6.38;;;23.20;56.70;;;;;;6157087;28;80371;-70
2021/12/31 15:38:10;;;;;;;10.98;6.13;;;23.20;57.10;;;;;;6152016;28;80724;-71
2021/12/31 15:41:11;;;;;;;11.85;6.35;;;23.30;57.20;;;;;;6161898;28;79968;-70
2021/12/31 15:44:11;;;;;;;14.55;6.95;;;23.40;57.50;;;;;;6162056;28;80848;-70
2021/12/31 15:47:12;;;;;;;9.07;5.30;;;23.30;57.40;;;;;;6161625;28;81933;-70